AIC6CR VIDP-VAPO
Flight info
| Callsign | AIC6CR |
|---|---|
| Flight time | 1h 29m |
| Altitude | 38000 |
| Route | DPN A474 IGOLU DCT NIKOT Q2 BEGON/N0442F370 DCT ANGUP/N0444F380 DCT KAKPO |
| Aircraft | A319/M-SDE3FGHIRWY/LB1 |
Departure
| Time | 2026-05-06 11:58 |
|---|---|
| Airport | Indira Gandhi International Airport (VIDP) |
Arrival
| Time | 2026-05-06 13:28 |
|---|---|
| Airport | Pune International Airport (VAPO) |
| Time | Latitude | Longitude | Altitude | Speed | Heading |
|---|---|---|---|---|---|
| 2026-05-06 11:01 | 28.55194 | 77.08367 | 774 ft | 0 kts | 328° |
| 2026-05-06 11:47 | 28.55188 | 77.08371 | 773 ft | 1 kts | 328° |
| 2026-05-06 11:48 | 28.55182 | 77.08376 | 773 ft | 1 kts | 328° |
| 2026-05-06 11:48 | 28.55175 | 77.08380 | 773 ft | 1 kts | 327° |
| 2026-05-06 11:48 | 28.55168 | 77.08385 | 773 ft | 1 kts | 327° |
| 2026-05-06 11:48 | 28.55159 | 77.08392 | 773 ft | 2 kts | 319° |
| 2026-05-06 11:49 | 28.55149 | 77.08406 | 773 ft | 2 kts | 294° |
| 2026-05-06 11:49 | 28.55146 | 77.08422 | 773 ft | 2 kts | 269° |
| 2026-05-06 11:49 | 28.55148 | 77.08439 | 773 ft | 2 kts | 257° |
| 2026-05-06 11:49 | 28.55151 | 77.08456 | 773 ft | 2 kts | 268° |
| 2026-05-06 11:50 | 28.55150 | 77.08473 | 773 ft | 2 kts | 278° |
| 2026-05-06 11:50 | 28.55147 | 77.08490 | 773 ft | 2 kts | 279° |
| 2026-05-06 11:50 | 28.55146 | 77.08504 | 773 ft | 0 kts | 268° |
| 2026-05-06 11:52 | 28.55142 | 77.08488 | 773 ft | 4 kts | 243° |
| 2026-05-06 11:52 | 28.55116 | 77.08445 | 773 ft | 9 kts | 239° |
| 2026-05-06 11:53 | 28.55076 | 77.08367 | 773 ft | 14 kts | 240° |
| 2026-05-06 11:53 | 28.54997 | 77.08307 | 773 ft | 16 kts | 181° |
| 2026-05-06 11:53 | 28.54906 | 77.08342 | 773 ft | 14 kts | 103° |
| 2026-05-06 11:53 | 28.54876 | 77.08463 | 773 ft | 18 kts | 105° |
| 2026-05-06 11:54 | 28.54838 | 77.08621 | 773 ft | 23 kts | 105° |
| 2026-05-06 11:54 | 28.54795 | 77.08809 | 774 ft | 26 kts | 102° |
| 2026-05-06 11:54 | 28.54758 | 77.08975 | 774 ft | 21 kts | 105° |
| 2026-05-06 11:54 | 28.54715 | 77.09154 | 774 ft | 25 kts | 105° |
| 2026-05-06 11:55 | 28.54667 | 77.09360 | 774 ft | 29 kts | 105° |
| 2026-05-06 11:55 | 28.54616 | 77.09587 | 774 ft | 31 kts | 104° |
| 2026-05-06 11:55 | 28.54575 | 77.09775 | 774 ft | 24 kts | 105° |
| 2026-05-06 11:55 | 28.54529 | 77.09973 | 774 ft | 28 kts | 105° |
| 2026-05-06 11:56 | 28.54476 | 77.10197 | 774 ft | 31 kts | 104° |
| 2026-05-06 11:56 | 28.54426 | 77.10425 | 774 ft | 18 kts | 104° |
| 2026-05-06 11:56 | 28.54382 | 77.10561 | 774 ft | 18 kts | 142° |
| 2026-05-06 11:56 | 28.54255 | 77.10547 | 774 ft | 21 kts | 196° |
| 2026-05-06 11:57 | 28.54099 | 77.10501 | 774 ft | 24 kts | 194° |
| 2026-05-06 11:57 | 28.53928 | 77.10445 | 774 ft | 23 kts | 203° |
| 2026-05-06 11:57 | 28.53897 | 77.10355 | 773 ft | 11 kts | 286° |
| 2026-05-06 11:57 | 28.53900 | 77.10337 | 773 ft | 3 kts | 282° |
| 2026-05-06 11:58 | 28.53934 | 77.10188 | 773 ft | 58 kts | 283° |
| 2026-05-06 11:58 | 28.54031 | 77.09744 | 773 ft | 113 kts | 284° |
| 2026-05-06 11:58 | 28.54256 | 77.08658 | 941 ft | 159 kts | 284° |
| 2026-05-06 11:58 | 28.54565 | 77.07381 | 1541 ft | 176 kts | 287° |
| 2026-05-06 11:59 | 28.54936 | 77.05984 | 2159 ft | 194 kts | 289° |
| 2026-05-06 11:59 | 28.55328 | 77.04472 | 2761 ft | 207 kts | 287° |
| 2026-05-06 11:59 | 28.55512 | 77.02752 | 3212 ft | 232 kts | 265° |
| 2026-05-06 11:59 | 28.54956 | 77.00926 | 3884 ft | 260 kts | 238° |
| 2026-05-06 12:00 | 28.53612 | 76.99477 | 4939 ft | 274 kts | 211° |
| 2026-05-06 12:00 | 28.51926 | 76.98439 | 6205 ft | 277 kts | 210° |
| 2026-05-06 12:00 | 28.50222 | 76.97391 | 7415 ft | 281 kts | 211° |
| 2026-05-06 12:00 | 28.48496 | 76.96312 | 8658 ft | 284 kts | 212° |
| 2026-05-06 12:01 | 28.46758 | 76.95204 | 9889 ft | 287 kts | 213° |
| 2026-05-06 12:01 | 28.44984 | 76.94051 | 10703 ft | 307 kts | 214° |
| 2026-05-06 12:01 | 28.43043 | 76.92774 | 11245 ft | 333 kts | 214° |
| 2026-05-06 12:01 | 28.41016 | 76.91443 | 11973 ft | 347 kts | 214° |
| 2026-05-06 12:02 | 28.38876 | 76.90053 | 13071 ft | 352 kts | 215° |
| 2026-05-06 12:02 | 28.36753 | 76.88683 | 14030 ft | 358 kts | 215° |
| 2026-05-06 12:02 | 28.34567 | 76.87270 | 14953 ft | 364 kts | 216° |
| 2026-05-06 12:02 | 28.32343 | 76.85828 | 15858 ft | 371 kts | 216° |
| 2026-05-06 12:03 | 28.30121 | 76.84392 | 16715 ft | 377 kts | 216° |
| 2026-05-06 12:03 | 28.27814 | 76.82900 | 17579 ft | 384 kts | 216° |
| 2026-05-06 12:03 | 28.25470 | 76.81387 | 18390 ft | 390 kts | 216° |
| 2026-05-06 12:03 | 28.23084 | 76.79849 | 19180 ft | 395 kts | 216° |
| 2026-05-06 12:04 | 28.20676 | 76.78299 | 19973 ft | 400 kts | 216° |
| 2026-05-06 12:04 | 28.18276 | 76.76756 | 20754 ft | 405 kts | 217° |
| 2026-05-06 12:04 | 28.15798 | 76.75158 | 21327 ft | 416 kts | 217° |
| 2026-05-06 12:04 | 28.13171 | 76.73454 | 21549 ft | 436 kts | 217° |
| 2026-05-06 12:05 | 28.10521 | 76.71738 | 21781 ft | 452 kts | 216° |
| 2026-05-06 12:05 | 28.07753 | 76.69959 | 22392 ft | 458 kts | 216° |
| 2026-05-06 12:05 | 28.04956 | 76.68171 | 23088 ft | 463 kts | 216° |
| 2026-05-06 12:05 | 28.02127 | 76.66366 | 23670 ft | 467 kts | 216° |
| 2026-05-06 12:06 | 27.99280 | 76.64558 | 24243 ft | 471 kts | 216° |
| 2026-05-06 12:06 | 27.96450 | 76.62752 | 24795 ft | 474 kts | 216° |
| 2026-05-06 12:06 | 27.93564 | 76.60903 | 25313 ft | 478 kts | 216° |
| 2026-05-06 12:06 | 27.90663 | 76.59045 | 25828 ft | 481 kts | 216° |
| 2026-05-06 12:07 | 27.87731 | 76.57172 | 26321 ft | 484 kts | 216° |
| 2026-05-06 12:07 | 27.84780 | 76.55288 | 26802 ft | 488 kts | 216° |
| 2026-05-06 12:07 | 27.81848 | 76.53423 | 27256 ft | 491 kts | 217° |
| 2026-05-06 12:07 | 27.78873 | 76.51411 | 27680 ft | 492 kts | 220° |
| 2026-05-06 12:08 | 27.76026 | 76.49265 | 28012 ft | 493 kts | 221° |
| 2026-05-06 12:08 | 27.73179 | 76.47079 | 28325 ft | 495 kts | 221° |
| 2026-05-06 12:08 | 27.70324 | 76.44896 | 28598 ft | 497 kts | 221° |
| 2026-05-06 12:08 | 27.67468 | 76.42729 | 28887 ft | 498 kts | 221° |
| 2026-05-06 12:09 | 27.64616 | 76.40585 | 29193 ft | 498 kts | 220° |
| 2026-05-06 12:09 | 27.61722 | 76.38417 | 29528 ft | 497 kts | 220° |
| 2026-05-06 12:09 | 27.58840 | 76.36259 | 29862 ft | 497 kts | 220° |
| 2026-05-06 12:09 | 27.55955 | 76.34102 | 30188 ft | 496 kts | 220° |
| 2026-05-06 12:10 | 27.53025 | 76.32023 | 30551 ft | 496 kts | 218° |
| 2026-05-06 12:10 | 27.50054 | 76.30121 | 30924 ft | 497 kts | 215° |
| 2026-05-06 12:10 | 27.46966 | 76.28365 | 31343 ft | 497 kts | 212° |
| 2026-05-06 12:10 | 27.43885 | 76.26709 | 31908 ft | 493 kts | 212° |
| 2026-05-06 12:11 | 27.40795 | 76.25068 | 32378 ft | 491 kts | 212° |
| 2026-05-06 12:11 | 27.37705 | 76.23429 | 32807 ft | 489 kts | 212° |
| 2026-05-06 12:11 | 27.34629 | 76.21795 | 33197 ft | 487 kts | 212° |
| 2026-05-06 12:11 | 27.31592 | 76.20178 | 33583 ft | 486 kts | 213° |
| 2026-05-06 12:12 | 27.28519 | 76.18537 | 33915 ft | 484 kts | 213° |
| 2026-05-06 12:12 | 27.25457 | 76.16898 | 34230 ft | 483 kts | 213° |
| 2026-05-06 12:12 | 27.22425 | 76.15272 | 34524 ft | 481 kts | 213° |
| 2026-05-06 12:12 | 27.19419 | 76.13658 | 34809 ft | 480 kts | 213° |
| 2026-05-06 12:13 | 27.16364 | 76.12017 | 35109 ft | 479 kts | 213° |
| 2026-05-06 12:13 | 27.13358 | 76.10403 | 35395 ft | 478 kts | 213° |
| 2026-05-06 12:13 | 27.10362 | 76.08796 | 35692 ft | 477 kts | 213° |
| 2026-05-06 12:13 | 27.07349 | 76.07181 | 35993 ft | 475 kts | 213° |
| 2026-05-06 12:14 | 27.04362 | 76.05581 | 36288 ft | 474 kts | 213° |
| 2026-05-06 12:14 | 27.01426 | 76.04010 | 36593 ft | 473 kts | 213° |
| 2026-05-06 12:14 | 26.98460 | 76.02423 | 36901 ft | 472 kts | 213° |
| 2026-05-06 12:14 | 26.95477 | 76.00829 | 37211 ft | 471 kts | 213° |
| 2026-05-06 12:15 | 26.92555 | 75.99267 | 37523 ft | 469 kts | 213° |
| 2026-05-06 12:15 | 26.89623 | 75.97702 | 37796 ft | 468 kts | 213° |
| 2026-05-06 12:15 | 26.83728 | 75.94556 | 37800 ft | 466 kts | 213° |
| 2026-05-06 12:16 | 26.77933 | 75.91465 | 37800 ft | 466 kts | 213° |
| 2026-05-06 12:16 | 26.72023 | 75.88316 | 37793 ft | 466 kts | 213° |
| 2026-05-06 12:17 | 26.66148 | 75.85191 | 37804 ft | 466 kts | 213° |
| 2026-05-06 12:17 | 26.60235 | 75.82048 | 37803 ft | 466 kts | 213° |
| 2026-05-06 12:18 | 26.54410 | 75.78955 | 37793 ft | 466 kts | 213° |
| 2026-05-06 12:18 | 26.48575 | 75.75861 | 37792 ft | 466 kts | 213° |
| 2026-05-06 12:19 | 26.42710 | 75.72755 | 37776 ft | 466 kts | 213° |
| 2026-05-06 12:19 | 26.36836 | 75.69648 | 37791 ft | 466 kts | 213° |
| 2026-05-06 12:20 | 26.31030 | 75.66579 | 37790 ft | 466 kts | 213° |
| 2026-05-06 12:20 | 26.25228 | 75.63491 | 37793 ft | 467 kts | 214° |
| 2026-05-06 12:21 | 26.19404 | 75.60399 | 37796 ft | 466 kts | 213° |
| 2026-05-06 12:21 | 26.13576 | 75.57333 | 37798 ft | 466 kts | 213° |
| 2026-05-06 12:22 | 26.07689 | 75.54246 | 37795 ft | 466 kts | 213° |
| 2026-05-06 12:22 | 26.01848 | 75.51183 | 37794 ft | 466 kts | 213° |
| 2026-05-06 12:23 | 25.95979 | 75.48108 | 37791 ft | 466 kts | 213° |
| 2026-05-06 12:23 | 25.90090 | 75.45030 | 37794 ft | 467 kts | 212° |
| 2026-05-06 12:24 | 25.84077 | 75.42254 | 37796 ft | 471 kts | 208° |
| 2026-05-06 12:24 | 25.77922 | 75.39723 | 37794 ft | 471 kts | 207° |
| 2026-05-06 12:25 | 25.71789 | 75.37217 | 37798 ft | 471 kts | 207° |
| 2026-05-06 12:25 | 25.65637 | 75.34702 | 37799 ft | 471 kts | 207° |
| 2026-05-06 12:26 | 25.59515 | 75.32198 | 37795 ft | 470 kts | 207° |
| 2026-05-06 12:26 | 25.53361 | 75.29681 | 37796 ft | 470 kts | 207° |
| 2026-05-06 12:27 | 25.47209 | 75.27167 | 37798 ft | 470 kts | 207° |
| 2026-05-06 12:27 | 25.41057 | 75.24653 | 37796 ft | 470 kts | 207° |
| 2026-05-06 12:28 | 25.34951 | 75.22161 | 37801 ft | 470 kts | 207° |
| 2026-05-06 12:28 | 25.28809 | 75.19655 | 37800 ft | 470 kts | 207° |
| 2026-05-06 12:29 | 25.22659 | 75.17149 | 37801 ft | 470 kts | 206° |
| 2026-05-06 12:29 | 25.16555 | 75.14663 | 37801 ft | 470 kts | 206° |
| 2026-05-06 12:30 | 25.10410 | 75.12163 | 37806 ft | 470 kts | 206° |
| 2026-05-06 12:30 | 25.04253 | 75.09661 | 37804 ft | 470 kts | 206° |
| 2026-05-06 12:31 | 24.98140 | 75.07178 | 37815 ft | 471 kts | 206° |
| 2026-05-06 12:31 | 24.91981 | 75.04680 | 37806 ft | 471 kts | 206° |
| 2026-05-06 12:32 | 24.86872 | 75.02608 | 37814 ft | 470 kts | 206° |
| 2026-05-06 12:32 | 24.80713 | 75.00113 | 37812 ft | 471 kts | 206° |
| 2026-05-06 12:33 | 24.74549 | 74.97620 | 37812 ft | 471 kts | 206° |
| 2026-05-06 12:33 | 24.68428 | 74.95145 | 37811 ft | 471 kts | 206° |
| 2026-05-06 12:34 | 24.62275 | 74.92660 | 37810 ft | 470 kts | 206° |
| 2026-05-06 12:34 | 24.56119 | 74.90179 | 37811 ft | 471 kts | 206° |
| 2026-05-06 12:35 | 24.49958 | 74.87701 | 37815 ft | 470 kts | 206° |
| 2026-05-06 12:35 | 24.43821 | 74.85233 | 37815 ft | 470 kts | 206° |
| 2026-05-06 12:36 | 24.37667 | 74.82761 | 37817 ft | 470 kts | 206° |
| 2026-05-06 12:36 | 24.31594 | 74.80323 | 37817 ft | 470 kts | 206° |
| 2026-05-06 12:37 | 24.25370 | 74.77826 | 37818 ft | 470 kts | 206° |
| 2026-05-06 12:37 | 24.19261 | 74.75379 | 37822 ft | 470 kts | 205° |
| 2026-05-06 12:38 | 24.13102 | 74.72916 | 37816 ft | 470 kts | 205° |
| 2026-05-06 12:38 | 24.06981 | 74.70470 | 37820 ft | 470 kts | 205° |
| 2026-05-06 12:39 | 24.00829 | 74.68013 | 37828 ft | 470 kts | 205° |
| 2026-05-06 12:39 | 23.94721 | 74.65566 | 37819 ft | 469 kts | 205° |
| 2026-05-06 12:40 | 23.88581 | 74.63103 | 37818 ft | 469 kts | 205° |
| 2026-05-06 12:40 | 23.82432 | 74.60641 | 37821 ft | 469 kts | 205° |
| 2026-05-06 12:41 | 23.76299 | 74.58189 | 37815 ft | 469 kts | 205° |
| 2026-05-06 12:41 | 23.70201 | 74.55753 | 37813 ft | 469 kts | 205° |
| 2026-05-06 12:42 | 23.64053 | 74.53300 | 37812 ft | 469 kts | 205° |
| 2026-05-06 12:42 | 23.57917 | 74.50855 | 37808 ft | 469 kts | 205° |
| 2026-05-06 12:43 | 23.51793 | 74.48417 | 37802 ft | 469 kts | 205° |
| 2026-05-06 12:43 | 23.45647 | 74.45971 | 37799 ft | 469 kts | 205° |
| 2026-05-06 12:44 | 23.39535 | 74.43542 | 37802 ft | 469 kts | 205° |
| 2026-05-06 12:44 | 23.33397 | 74.41108 | 37796 ft | 468 kts | 205° |
| 2026-05-06 12:45 | 23.27264 | 74.38675 | 37793 ft | 468 kts | 205° |
| 2026-05-06 12:46 | 23.18114 | 74.35051 | 37793 ft | 468 kts | 205° |
| 2026-05-06 12:46 | 23.12014 | 74.32638 | 37792 ft | 468 kts | 205° |
| 2026-05-06 12:47 | 23.05890 | 74.30218 | 37789 ft | 467 kts | 205° |
| 2026-05-06 12:47 | 22.99775 | 74.27803 | 37783 ft | 467 kts | 204° |
| 2026-05-06 12:48 | 22.93651 | 74.25388 | 37787 ft | 467 kts | 204° |
| 2026-05-06 12:48 | 22.87579 | 74.22995 | 37782 ft | 467 kts | 204° |
| 2026-05-06 12:49 | 22.81469 | 74.20587 | 37781 ft | 467 kts | 204° |
| 2026-05-06 12:49 | 22.75340 | 74.18179 | 37780 ft | 466 kts | 204° |
| 2026-05-06 12:50 | 22.69273 | 74.15797 | 37777 ft | 466 kts | 204° |
| 2026-05-06 12:50 | 22.62870 | 74.14111 | 37770 ft | 478 kts | 191° |
| 2026-05-06 12:51 | 22.56163 | 74.14021 | 37765 ft | 488 kts | 178° |
| 2026-05-06 12:51 | 22.49248 | 74.14798 | 37772 ft | 488 kts | 178° |
| 2026-05-06 12:52 | 22.42571 | 74.15526 | 37767 ft | 487 kts | 179° |
| 2026-05-06 12:52 | 22.35934 | 74.16188 | 37769 ft | 486 kts | 179° |
| 2026-05-06 12:53 | 22.29203 | 74.16832 | 37775 ft | 486 kts | 179° |
| 2026-05-06 12:53 | 22.22460 | 74.17478 | 37772 ft | 485 kts | 180° |
| 2026-05-06 12:54 | 22.15722 | 74.18130 | 37776 ft | 486 kts | 180° |
| 2026-05-06 12:54 | 22.08988 | 74.18784 | 37780 ft | 485 kts | 180° |
| 2026-05-06 12:55 | 22.02262 | 74.19441 | 37782 ft | 484 kts | 180° |
| 2026-05-06 12:55 | 21.95544 | 74.20096 | 37782 ft | 484 kts | 180° |
| 2026-05-06 12:56 | 21.88888 | 74.20746 | 37789 ft | 483 kts | 180° |
| 2026-05-06 12:56 | 21.82169 | 74.21402 | 37789 ft | 483 kts | 180° |
| 2026-05-06 12:57 | 21.75482 | 74.22057 | 37784 ft | 482 kts | 180° |
| 2026-05-06 12:57 | 21.68782 | 74.22712 | 37789 ft | 482 kts | 179° |
| 2026-05-06 12:58 | 21.62201 | 74.23355 | 37790 ft | 482 kts | 179° |
| 2026-05-06 12:58 | 21.55463 | 74.24013 | 37786 ft | 481 kts | 179° |
| 2026-05-06 12:59 | 21.48791 | 74.24665 | 37790 ft | 481 kts | 179° |
| 2026-05-06 12:59 | 21.42100 | 74.25317 | 37790 ft | 481 kts | 179° |
| 2026-05-06 13:00 | 21.35465 | 74.25850 | 37793 ft | 479 kts | 183° |
| 2026-05-06 13:00 | 21.28823 | 74.25648 | 37801 ft | 473 kts | 191° |
| 2026-05-06 13:01 | 21.22335 | 74.24660 | 37800 ft | 470 kts | 195° |
| 2026-05-06 13:01 | 21.15837 | 74.23566 | 37799 ft | 470 kts | 194° |
| 2026-05-06 13:02 | 21.09367 | 74.22515 | 37803 ft | 471 kts | 194° |
| 2026-05-06 13:02 | 21.02919 | 74.21488 | 37815 ft | 471 kts | 194° |
| 2026-05-06 13:03 | 20.96436 | 74.20460 | 37812 ft | 471 kts | 194° |
| 2026-05-06 13:03 | 20.89941 | 74.19432 | 37819 ft | 471 kts | 194° |
| 2026-05-06 13:04 | 20.83428 | 74.18404 | 37821 ft | 471 kts | 194° |
| 2026-05-06 13:04 | 20.76975 | 74.17382 | 37830 ft | 471 kts | 194° |
| 2026-05-06 13:05 | 20.71576 | 74.16529 | 37826 ft | 471 kts | 194° |
| 2026-05-06 13:05 | 20.64022 | 74.15338 | 37835 ft | 471 kts | 193° |
| 2026-05-06 13:06 | 20.58615 | 74.14486 | 37836 ft | 471 kts | 193° |
| 2026-05-06 13:06 | 20.52129 | 74.13466 | 37837 ft | 471 kts | 193° |
| 2026-05-06 13:07 | 20.45643 | 74.12447 | 37841 ft | 471 kts | 193° |
| 2026-05-06 13:07 | 20.39146 | 74.11429 | 37843 ft | 471 kts | 193° |
| 2026-05-06 13:08 | 20.32686 | 74.10417 | 37846 ft | 471 kts | 193° |
| 2026-05-06 13:08 | 20.26178 | 74.09399 | 37848 ft | 471 kts | 193° |
| 2026-05-06 13:09 | 20.19691 | 74.08384 | 37848 ft | 471 kts | 193° |
| 2026-05-06 13:09 | 20.16448 | 74.07877 | 37713 ft | 469 kts | 193° |
| 2026-05-06 13:09 | 20.13267 | 74.07380 | 37069 ft | 469 kts | 193° |
| 2026-05-06 13:09 | 20.10043 | 74.06874 | 36139 ft | 473 kts | 193° |
| 2026-05-06 13:10 | 20.06739 | 74.06355 | 35115 ft | 476 kts | 192° |
| 2026-05-06 13:10 | 20.03441 | 74.05837 | 34065 ft | 480 kts | 192° |
| 2026-05-06 13:10 | 20.00114 | 74.05315 | 32857 ft | 485 kts | 192° |
| 2026-05-06 13:10 | 19.96762 | 74.04790 | 31583 ft | 491 kts | 192° |
| 2026-05-06 13:11 | 19.93390 | 74.04265 | 30468 ft | 495 kts | 192° |
| 2026-05-06 13:11 | 19.89986 | 74.03738 | 29593 ft | 493 kts | 192° |
| 2026-05-06 13:11 | 19.86561 | 74.03212 | 28904 ft | 484 kts | 192° |
| 2026-05-06 13:11 | 19.83309 | 74.02715 | 28527 ft | 470 kts | 192° |
| 2026-05-06 13:12 | 19.80106 | 74.02223 | 27904 ft | 462 kts | 192° |
| 2026-05-06 13:12 | 19.76925 | 74.01771 | 27134 ft | 460 kts | 189° |
| 2026-05-06 13:12 | 19.73701 | 74.01627 | 26162 ft | 466 kts | 181° |
| 2026-05-06 13:12 | 19.70469 | 74.01811 | 25547 ft | 461 kts | 179° |
| 2026-05-06 13:13 | 19.67321 | 74.02039 | 25126 ft | 450 kts | 179° |
| 2026-05-06 13:13 | 19.64192 | 74.02267 | 24372 ft | 449 kts | 180° |
| 2026-05-06 13:13 | 19.61069 | 74.02483 | 23686 ft | 448 kts | 180° |
| 2026-05-06 13:13 | 19.57967 | 74.02688 | 23007 ft | 443 kts | 180° |
| 2026-05-06 13:14 | 19.54911 | 74.02879 | 22339 ft | 437 kts | 180° |
| 2026-05-06 13:14 | 19.51894 | 74.03059 | 21667 ft | 432 kts | 180° |
| 2026-05-06 13:14 | 19.48908 | 74.03230 | 21000 ft | 427 kts | 180° |
| 2026-05-06 13:14 | 19.45957 | 74.03397 | 20333 ft | 421 kts | 179° |
| 2026-05-06 13:15 | 19.43081 | 74.03561 | 19689 ft | 406 kts | 179° |
| 2026-05-06 13:15 | 19.40290 | 74.03723 | 19059 ft | 394 kts | 179° |
| 2026-05-06 13:15 | 19.37624 | 74.03877 | 18450 ft | 383 kts | 178° |
| 2026-05-06 13:15 | 19.34995 | 74.04031 | 17803 ft | 373 kts | 178° |
| 2026-05-06 13:16 | 19.32417 | 74.04180 | 17201 ft | 370 kts | 178° |
| 2026-05-06 13:16 | 19.29846 | 74.04330 | 16613 ft | 367 kts | 177° |
| 2026-05-06 13:16 | 19.27297 | 74.04480 | 16022 ft | 365 kts | 177° |
| 2026-05-06 13:16 | 19.24772 | 74.04630 | 15445 ft | 364 kts | 176° |
| 2026-05-06 13:17 | 19.22250 | 74.04779 | 14858 ft | 362 kts | 176° |
| 2026-05-06 13:17 | 19.19756 | 74.04929 | 14272 ft | 360 kts | 175° |
| 2026-05-06 13:17 | 19.17260 | 74.05079 | 13707 ft | 359 kts | 175° |
| 2026-05-06 13:17 | 19.14770 | 74.05230 | 13091 ft | 356 kts | 175° |
| 2026-05-06 13:18 | 19.12302 | 74.05382 | 12509 ft | 352 kts | 175° |
| 2026-05-06 13:18 | 19.09855 | 74.05535 | 11955 ft | 349 kts | 175° |
| 2026-05-06 13:18 | 19.07470 | 74.05684 | 11401 ft | 346 kts | 175° |
| 2026-05-06 13:18 | 19.05070 | 74.05834 | 10847 ft | 344 kts | 174° |
| 2026-05-06 13:19 | 19.02691 | 74.05981 | 10294 ft | 342 kts | 175° |
| 2026-05-06 13:19 | 19.00329 | 74.06125 | 9974 ft | 332 kts | 174° |
| 2026-05-06 13:19 | 18.98072 | 74.06259 | 9841 ft | 317 kts | 174° |
| 2026-05-06 13:19 | 18.95915 | 74.06387 | 9708 ft | 303 kts | 174° |
| 2026-05-06 13:20 | 18.93791 | 74.06515 | 9431 ft | 303 kts | 174° |
| 2026-05-06 13:20 | 18.91710 | 74.06643 | 9022 ft | 304 kts | 174° |
| 2026-05-06 13:20 | 18.89592 | 74.06777 | 8594 ft | 302 kts | 174° |
| 2026-05-06 13:20 | 18.87495 | 74.06909 | 8181 ft | 300 kts | 174° |
| 2026-05-06 13:21 | 18.85418 | 74.07040 | 7761 ft | 298 kts | 174° |
| 2026-05-06 13:21 | 18.83347 | 74.07173 | 7350 ft | 296 kts | 175° |
| 2026-05-06 13:21 | 18.81293 | 74.07303 | 6997 ft | 294 kts | 175° |
| 2026-05-06 13:21 | 18.79241 | 74.07432 | 6670 ft | 297 kts | 175° |
| 2026-05-06 13:22 | 18.77164 | 74.07565 | 6245 ft | 300 kts | 176° |
| 2026-05-06 13:22 | 18.75092 | 74.07697 | 5812 ft | 295 kts | 176° |
| 2026-05-06 13:22 | 18.73096 | 74.07820 | 5413 ft | 286 kts | 177° |
| 2026-05-06 13:22 | 18.71122 | 74.07939 | 5018 ft | 277 kts | 177° |
| 2026-05-06 13:23 | 18.69212 | 74.08052 | 4638 ft | 272 kts | 178° |
| 2026-05-06 13:23 | 18.67324 | 74.08164 | 4226 ft | 273 kts | 178° |
| 2026-05-06 13:23 | 18.65474 | 74.08274 | 3890 ft | 271 kts | 178° |
| 2026-05-06 13:23 | 18.63480 | 74.08391 | 3780 ft | 283 kts | 179° |
| 2026-05-06 13:24 | 18.61563 | 74.08507 | 3761 ft | 267 kts | 179° |
| 2026-05-06 13:24 | 18.59801 | 74.08290 | 3759 ft | 246 kts | 203° |
| 2026-05-06 13:24 | 18.58424 | 74.07372 | 3766 ft | 229 kts | 231° |
| 2026-05-06 13:24 | 18.57613 | 74.05984 | 3769 ft | 222 kts | 256° |
| 2026-05-06 13:25 | 18.57417 | 74.04420 | 3762 ft | 213 kts | 274° |
| 2026-05-06 13:25 | 18.57515 | 74.02895 | 3715 ft | 203 kts | 277° |
| 2026-05-06 13:25 | 18.57645 | 74.01465 | 3437 ft | 193 kts | 274° |
| 2026-05-06 13:25 | 18.57715 | 74.00073 | 3156 ft | 182 kts | 275° |
| 2026-05-06 13:26 | 18.57795 | 73.98860 | 2967 ft | 156 kts | 275° |
| 2026-05-06 13:26 | 18.57862 | 73.97804 | 2799 ft | 134 kts | 275° |
| 2026-05-06 13:26 | 18.57921 | 73.96832 | 2639 ft | 129 kts | 275° |
| 2026-05-06 13:26 | 18.57996 | 73.95850 | 2469 ft | 140 kts | 275° |
| 2026-05-06 13:27 | 18.58065 | 73.94859 | 2249 ft | 136 kts | 273° |
| 2026-05-06 13:27 | 18.58110 | 73.93822 | 2107 ft | 140 kts | 274° |
| 2026-05-06 13:27 | 18.58176 | 73.92830 | 1961 ft | 134 kts | 273° |
| 2026-05-06 13:27 | 18.58235 | 73.91869 | 1924 ft | 117 kts | 274° |
| 2026-05-06 13:28 | 18.58272 | 73.91252 | 1924 ft | 30 kts | 271° |
| 2026-05-06 13:28 | 18.58247 | 73.91138 | 1924 ft | 10 kts | 247° |
| 2026-05-06 13:28 | 18.58216 | 73.91070 | 1924 ft | 11 kts | 243° |
| 2026-05-06 13:28 | 18.58160 | 73.91037 | 1925 ft | 8 kts | 187° |
| 2026-05-06 13:29 | 18.58090 | 73.91022 | 1924 ft | 11 kts | 191° |
| 2026-05-06 13:29 | 18.58053 | 73.90993 | 1924 ft | 8 kts | 261° |
| 2026-05-06 13:29 | 18.58049 | 73.90939 | 1924 ft | 0 kts | 250° |
| 2026-05-06 13:29 | 18.58041 | 73.90931 | 1924 ft | 3 kts | 210° |
| 2026-05-06 13:30 | 18.58017 | 73.90925 | 1924 ft | 2 kts | 192° |
| 2026-05-06 13:30 | 18.58008 | 73.90923 | 1924 ft | 3 kts | 193° |
| 2026-05-06 13:30 | 18.57998 | 73.90921 | 1924 ft | 0 kts | 191° |